KHVS/HVS METAR and TAF weather

Enter ICAO airport designator
Station Type Date Time Source
KHVS METAR 2019/07/20 19:55 UTC NOAA

KHVS 201955Z AUTO 20005KT 10SM SCT050 34/22 A3001 RMK AO2 LTG DSNT W


Station Type Date Time Source
KHVS Decoded METAR 2019/07/20 19:55 UTC NOAA

Station name not available
Jul 20, 2019 - 03:55 PM EDT / 2019.07.20 1955 UTC
Wind: from the SSW (200 degrees) at 6 MPH (5 KT):0
Visibility: 10 mile(s):0
Sky conditions: partly cloudy
Weather: Lightning observed
Temperature: 93 F (34 C)
Heat index: 100.0 F (37.8 C):1
Dew Point: 71 F (22 C)
Relative Humidity: 49%
Pressure (altimeter): 30.01 in. Hg (1016 hPa)
ob: KHVS 201955Z AUTO 20005KT 10SM SCT050 34/22 A3001 RMK AO2 LTG DSNT W
cycle: 20

Station Type Date Time Source
KHVS TAF UTC NOAA

Error!

Example: see airport list